Time;durP1;ratioP1;P1;durP2;ratioP2;P2;SDS_P1;SDS_P2;PMS_P1;PMS_P2;Temp;Humidity;BMP_temperature;BMP_pressure;BME280_temperature;BME280_humidity;BME280_pressure;Samples;Min_cycle;Max_cycle;Signal;HPM_P1;HPM_P2
2022/09/13 00:00:45;;;;;;;7.30;6.05;;;;;;;18.84;100.00;100910.25;5283000;28;20025;-70
2022/09/13 00:03:22;;;;;;;7.68;5.90;;;;;;;18.94;100.00;100915.28;5282072;28;20028;-70
2022/09/13 00:05:56;;;;;;;8.43;5.93;;;;;;;18.94;100.00;100912.63;5282897;28;20064;-70
2022/09/13 00:08:35;;;;;;;8.30;6.75;;;;;;;18.91;100.00;100915.69;5254533;28;20617;-70
2022/09/13 00:11:13;;;;;;;6.57;5.97;;;;;;;18.83;100.00;100913.13;5254869;28;20044;-70
2022/09/13 00:13:48;;;;;;;8.40;5.90;;;;;;;18.83;100.00;100923.72;5254819;28;20029;-70
2022/09/13 00:16:21;;;;;;;8.32;6.20;;;;;;;18.81;100.00;100918.59;5256465;28;20037;-70
2022/09/13 00:18:54;;;;;;;7.43;6.60;;;;;;;18.83;100.00;100918.44;5259383;28;20028;-70
2022/09/13 00:21:32;;;;;;;6.80;6.10;;;;;;;18.86;100.00;100910.88;5259302;28;20033;-70
2022/09/13 00:24:11;;;;;;;9.07;5.75;;;;;;;18.91;100.00;100905.88;5257720;28;20024;-70
2022/09/13 00:26:45;;;;;;;8.15;6.28;;;;;;;18.89;100.00;100899.09;5259177;28;20040;-70
2022/09/13 00:29:30;;;;;;;8.70;5.82;;;;;;;18.87;100.00;100901.13;5258893;28;20052;-70
2022/09/13 00:32:09;;;;;;;7.43;5.68;;;;;;;18.80;100.00;100894.88;5258394;28;20408;-70
2022/09/13 00:34:45;;;;;;;8.68;5.80;;;;;;;18.83;100.00;100905.16;5258633;28;20021;-70
2022/09/13 00:37:41;;;;;;;7.30;5.57;;;;;;;19.05;100.00;100895.41;5257415;28;20032;-70
2022/09/13 00:40:15;;;;;;;8.10;6.20;;;;;;;18.88;100.00;100898.28;5257050;28;20025;-70
2022/09/13 00:42:59;;;;;;;6.40;5.35;;;;;;;18.90;100.00;100888.31;5259169;28;20078;-70
2022/09/13 00:45:31;;;;;;;6.97;5.18;;;;;;;18.80;100.00;100886.94;5258585;28;20029;-70
2022/09/13 00:48:17;;;;;;;7.13;5.82;;;;;;;18.90;100.00;100883.00;5257554;28;20033;-70
2022/09/13 00:50:57;;;;;;;8.40;5.72;;;;;;;18.94;100.00;100878.97;5258293;28;20028;-70
2022/09/13 00:53:36;;;;;;;7.50;5.78;;;;;;;18.89;100.00;100878.66;5240508;28;20041;-70
2022/09/13 00:56:18;;;;;;;6.70;6.03;;;;;;;18.93;100.00;100873.81;5257155;28;20116;-70
2022/09/13 00:59:16;;;;;;;6.85;5.78;;;;;;;19.09;100.00;100872.78;5258348;28;20103;-70
2022/09/13 01:01:54;;;;;;;9.43;6.80;;;;;;;18.91;100.00;100871.38;5257869;28;20021;-70
2022/09/13 01:04:27;;;;;;;6.15;5.55;;;;;;;18.88;100.00;100870.91;5225743;28;20027;-70
2022/09/13 01:07:03;;;;;;;7.88;6.65;;;;;;;18.89;100.00;100875.19;5249045;28;20044;-70
2022/09/13 01:09:42;;;;;;;8.80;6.40;;;;;;;18.79;100.00;100862.22;5279609;28;20041;-70
2022/09/13 01:12:30;;;;;;;11.40;6.53;;;;;;;19.06;100.00;100865.22;5278568;28;20028;-70
2022/09/13 01:15:08;;;;;;;8.38;6.40;;;;;;;18.85;100.00;100861.47;5261115;28;20033;-70
2022/09/13 01:17:42;;;;;;;8.40;6.80;;;;;;;18.93;100.00;100864.03;5278326;28;20052;-70
2022/09/13 01:20:14;;;;;;;8.75;6.32;;;;;;;18.87;100.00;100863.97;5278986;28;20111;-70
2022/09/13 01:22:49;;;;;;;8.50;6.57;;;;;;;18.90;100.00;100864.41;5256900;28;20056;-70
2022/09/13 01:25:49;;;;;;;7.70;6.57;;;;;;;19.05;100.00;100861.72;5277109;28;20024;-70
2022/09/13 01:28:43;;;;;;;8.38;6.60;;;;;;;18.86;100.00;100862.28;5277007;28;20069;-70
2022/09/13 01:31:30;;;;;;;7.40;5.93;;;;;;;18.90;100.00;100855.59;5278598;28;20036;-70
2022/09/13 01:34:25;;;;;;;9.25;6.43;;;;;;;18.98;100.00;100860.00;5279657;28;20370;-70
2022/09/13 01:37:14;;;;;;;6.82;5.80;;;;;;;18.90;100.00;100858.25;5277878;28;20040;-70
2022/09/13 01:40:10;;;;;;;5.93;5.35;;;;;;;18.93;100.00;100856.06;5279015;28;20020;-70
2022/09/13 01:42:54;;;;;;;7.40;5.50;;;;;;;18.74;100.00;100859.28;5260845;28;20099;-70
2022/09/13 01:45:54;;;;;;;7.40;5.90;;;;;;;19.00;100.00;100858.81;5259399;28;20060;-70
2022/09/13 01:49:02;;;;;;;8.98;5.85;;;;;;;18.96;100.00;100857.53;5278055;28;20048;-70
2022/09/13 01:51:44;;;;;;;6.82;5.90;;;;;;;18.80;100.00;100855.91;5278445;28;20106;-70
2022/09/13 01:54:34;;;;;;;7.63;5.93;;;;;;;18.85;100.00;100842.06;5277107;28;20029;-70
2022/09/13 01:57:18;;;;;;;6.20;5.60;;;;;;;18.77;100.00;100844.81;5278703;28;20086;-70
2022/09/13 01:59:53;;;;;;;6.70;6.00;;;;;;;18.72;100.00;100842.72;5279744;28;20032;-70
2022/09/13 02:03:03;;;;;;;9.25;6.22;;;;;;;18.90;100.00;100851.13;5257508;28;20485;-70
2022/09/13 02:05:51;;;;;;;7.68;5.35;;;;;;;18.69;100.00;100853.66;5276618;28;20066;-70
2022/09/13 02:08:41;;;;;;;6.32;5.22;;;;;;;18.81;100.00;100852.22;5284433;28;20056;-68
2022/09/13 02:11:16;;;;;;;6.65;5.78;;;;;;;18.62;100.00;100850.09;5286642;28;20105;-69
2022/09/13 02:13:58;;;;;;;6.15;5.55;;;;;;;18.74;100.00;100846.00;5281657;28;20103;-69
2022/09/13 02:16:34;;;;;;;7.53;5.65;;;;;;;18.68;100.00;100847.53;5286872;28;20031;-69
2022/09/13 02:19:14;;;;;;;7.80;5.63;;;;;;;18.69;100.00;100840.41;5288018;28;20031;-69
2022/09/13 02:21:53;;;;;;;7.03;6.03;;;;;;;18.71;100.00;100843.72;5285483;28;20116;-69
2022/09/13 02:24:47;;;;;;;7.10;6.28;;;;;;;18.87;100.00;100850.69;5291259;28;20051;-69
2022/09/13 02:27:23;;;;;;;8.88;6.20;;;;;;;18.61;100.00;100854.59;5289281;28;20024;-69
2022/09/13 02:30:00;;;;;;;8.43;6.13;;;;;;;18.66;100.00;100859.34;5285068;28;20077;-69
2022/09/13 02:33:12;;;;;;;7.20;6.50;;;;;;;18.84;100.00;100856.34;5284245;28;20028;-69
2022/09/13 02:36:04;;;;;;;6.80;6.05;;;;;;;18.72;100.00;100866.59;5264456;28;20111;-69
2022/09/13 02:38:44;;;;;;;6.50;5.60;;;;;;;18.70;100.00;100866.78;5281198;28;20123;-69
2022/09/13 02:41:20;;;;;;;7.70;6.20;;;;;;;18.65;100.00;100869.13;5289607;28;20021;-69
2022/09/13 02:44:08;;;;;;;6.88;5.88;;;;;;;18.73;100.00;100864.78;5278322;28;20107;-69
2022/09/13 02:46:55;;;;;;;7.40;6.55;;;;;;;18.70;100.00;100877.38;5285477;28;20063;-68
2022/09/13 02:49:38;;;;;;;8.80;6.13;;;;;;;18.64;100.00;100880.75;5265675;28;20106;-68
2022/09/13 02:52:22;;;;;;;;;;;;;;;19.23;100.00;100876.44;5283367;28;20028;-69
2022/09/13 02:55:37;;;;;;;7.05;5.95;;;;;;;18.99;100.00;100883.72;5287862;28;19916;-69
2022/09/13 02:58:24;;;;;;;7.38;5.53;;;;;;;18.81;100.00;100877.94;5247480;28;20028;-69
2022/09/13 03:00:56;;;;;;;6.57;5.88;;;;;;;18.57;100.00;100874.53;5279016;28;20110;-69
2022/09/13 03:03:27;;;;;;;9.07;6.25;;;;;;;18.61;100.00;100878.47;5264370;28;20114;-69
2022/09/13 03:05:59;;;;;;;6.77;5.80;;;;;;;18.61;100.00;100870.50;5284476;28;20037;-69
2022/09/13 03:08:30;;;;;;;9.20;5.95;;;;;;;18.62;100.00;100873.97;5284301;28;20569;-69
2022/09/13 03:11:32;;;;;;;7.10;5.55;;;;;;;18.84;100.00;100873.09;5290740;28;20028;-69
2022/09/13 03:14:17;;;;;;;8.20;5.68;;;;;;;18.58;100.00;100878.00;5283433;28;20090;-69
2022/09/13 03:17:06;;;;;;;7.07;5.50;;;;;;;18.77;100.00;100869.53;5292078;28;20028;-69
2022/09/13 03:19:56;;;;;;;8.15;5.75;;;;;;;18.76;100.00;100869.72;5281809;28;20028;-69
2022/09/13 03:22:52;;;;;;;6.38;5.75;;;;;;;18.72;100.00;100863.97;5267796;28;20043;-69
2022/09/13 03:26:03;;;;;;;6.03;5.35;;;;;;;18.93;100.00;100863.19;5281029;28;20105;-69
2022/09/13 03:28:53;;;;;;;6.40;5.80;;;;;;;18.88;100.00;100858.44;5201372;28;20100;-69
2022/09/13 03:31:38;;;;;;;8.38;6.13;;;;;;;18.73;100.00;100859.47;5285214;28;20094;-69
2022/09/13 03:34:18;;;;;;;6.28;5.68;;;;;;;18.63;100.00;100863.16;5283827;28;20024;-69
2022/09/13 03:37:05;;;;;;;5.72;5.15;;;;;;;18.77;100.00;100850.13;5285986;28;20580;-69
2022/09/13 03:39:47;;;;;;;6.18;5.07;;;;;;;18.67;100.00;100860.97;5283010;28;20107;-69
2022/09/13 03:42:29;;;;;;;7.38;5.15;;;;;;;18.62;100.00;100861.53;5280425;28;20032;-69
2022/09/13 03:45:03;;;;;;;7.00;5.40;;;;;;;18.58;100.00;100862.09;5284275;28;20024;-69
2022/09/13 03:47:36;;;;;;;8.10;5.55;;;;;;;18.57;100.00;100863.09;5286451;28;20028;-69
2022/09/13 03:50:09;;;;;;;6.30;4.80;;;;;;;18.52;100.00;100863.63;5279960;28;20032;-69
2022/09/13 03:52:42;;;;;;;7.53;5.05;;;;;;;18.51;100.00;100842.59;5289905;28;20063;-69
2022/09/13 03:55:16;;;;;;;7.40;5.40;;;;;;;18.55;100.00;100850.00;5290160;28;20074;-69
2022/09/13 03:57:47;;;;;;;6.63;5.25;;;;;;;18.55;100.00;100846.53;5284574;28;20040;-68
2022/09/13 04:00:19;;;;;;;7.18;5.30;;;;;;;18.59;100.00;100845.97;5281476;28;20032;-69
2022/09/13 04:02:50;;;;;;;7.93;5.37;;;;;;;18.59;100.00;100850.44;5288112;28;20043;-69
2022/09/13 04:05:22;;;;;;;6.80;5.38;;;;;;;18.60;100.00;100847.63;5288780;28;20055;-69
2022/09/13 04:07:53;;;;;;;6.05;5.30;;;;;;;18.55;100.00;100842.03;5292071;28;20472;-69
2022/09/13 04:10:24;;;;;;;6.68;5.43;;;;;;;18.63;100.00;100867.66;5292673;28;20025;-69
2022/09/13 04:12:56;;;;;;;8.10;5.47;;;;;;;18.60;100.00;100863.56;5292333;28;20538;-68
2022/09/13 04:15:30;;;;;;;6.37;5.13;;;;;;;18.59;100.00;100871.69;5291194;28;20563;-69
2022/09/13 04:18:01;;;;;;;6.85;5.28;;;;;;;18.56;100.00;100867.59;5288514;28;20032;-69
2022/09/13 04:20:32;;;;;;;8.52;5.93;;;;;;;18.57;100.00;100877.19;5284307;28;20033;-68
2022/09/13 04:23:03;;;;;;;6.33;5.60;;;;;;;18.55;100.00;100883.66;5289162;28;20104;-69
2022/09/13 04:25:37;;;;;;;8.27;6.07;;;;;;;18.54;100.00;100882.84;5286430;28;20089;-69
2022/09/13 04:28:09;;;;;;;6.82;5.88;;;;;;;18.42;100.00;100885.13;5290216;28;20484;-68
2022/09/13 04:30:43;;;;;;;7.43;5.80;;;;;;;18.47;100.00;100887.22;5285011;28;20129;-68
2022/09/13 04:33:16;;;;;;;8.07;5.90;;;;;;;18.31;100.00;100884.72;5289956;28;20020;-69
2022/09/13 04:35:47;;;;;;;7.25;5.47;;;;;;;18.30;100.00;100883.09;5288222;28;20403;-69
2022/09/13 04:38:18;;;;;;;8.07;5.78;;;;;;;18.26;100.00;100901.19;5280010;28;20033;-69
2022/09/13 04:40:56;;;;;;;8.13;5.57;;;;;;;18.40;100.00;100896.91;5288901;28;20387;-69
2022/09/13 04:43:27;;;;;;;6.22;5.63;;;;;;;18.18;100.00;100895.94;5289465;28;20024;-68
2022/09/13 04:46:00;;;;;;;8.30;5.93;;;;;;;18.21;100.00;100900.88;5290148;28;20626;-68
2022/09/13 04:48:31;;;;;;;7.63;5.80;;;;;;;18.19;100.00;100900.25;5283909;28;20145;-69
2022/09/13 04:51:03;;;;;;;8.77;6.03;;;;;;;18.21;100.00;100899.03;5285432;28;20195;-68
2022/09/13 04:53:34;;;;;;;7.32;6.45;;;;;;;18.20;100.00;100899.25;5287480;28;20372;-68
2022/09/13 04:56:06;;;;;;;7.35;5.82;;;;;;;18.18;100.00;100891.47;5285490;28;20089;-68
2022/09/13 04:58:38;;;;;;;6.18;5.57;;;;;;;18.20;100.00;100896.59;5287833;28;20047;-70
2022/09/13 05:01:10;;;;;;;8.60;5.70;;;;;;;18.22;100.00;100897.22;5293023;28;20033;-68
2022/09/13 05:03:41;;;;;;;7.70;6.35;;;;;;;18.23;100.00;100899.72;5285122;28;20044;-68
2022/09/13 05:06:18;;;;;;;6.33;5.73;;;;;;;18.20;100.00;100884.16;5290456;28;20487;-69
2022/09/13 05:08:54;;;;;;;7.13;6.18;;;;;;;18.24;100.00;100890.75;5286652;28;20047;-70
2022/09/13 05:11:27;;;;;;;8.32;6.57;;;;;;;18.14;100.00;100890.16;5290505;28;20074;-69
2022/09/13 05:13:59;;;;;;;;;;;;;;;18.87;100.00;100890.50;5291399;28;20023;-69
2022/09/13 05:16:32;;;;;;;8.23;6.28;;;;;;;18.21;100.00;100888.44;5287139;28;20947;-69
2022/09/13 05:19:03;;;;;;;7.15;6.45;;;;;;;18.17;100.00;100889.81;5289343;28;20027;-68
2022/09/13 05:21:34;;;;;;;7.22;6.55;;;;;;;18.18;100.00;100888.81;5285734;28;20032;-68
2022/09/13 05:24:06;;;;;;;7.97;6.37;;;;;;;18.21;100.00;100899.03;5285474;28;20415;-68
2022/09/13 05:26:37;;;;;;;7.68;6.18;;;;;;;18.20;100.00;100893.94;5282696;28;20032;-69
2022/09/13 05:29:08;;;;;;;6.90;5.68;;;;;;;18.18;100.00;100887.97;5283675;28;20110;-69
2022/09/13 05:31:41;;;;;;;7.43;5.57;;;;;;;18.15;100.00;100904.25;5286651;28;20039;-69
2022/09/13 05:34:14;;;;;;;;;;;;;;;18.78;100.00;100900.38;5288472;28;20515;-69
2022/09/13 05:36:46;;;;;;;8.45;6.00;;;;;;;18.16;100.00;100898.78;5285603;28;20464;-69
2022/09/13 05:39:17;;;;;;;7.32;6.35;;;;;;;18.16;100.00;100896.13;5287061;28;20425;-69
2022/09/13 05:41:48;;;;;;;8.13;6.40;;;;;;;18.16;100.00;100904.06;5286013;28;20063;-69
2022/09/13 05:44:20;;;;;;;7.80;5.43;;;;;;;18.19;100.00;100905.56;5269024;28;20020;-69
2022/09/13 05:46:51;;;;;;;8.13;6.43;;;;;;;18.18;100.00;100907.38;5284452;28;20032;-69
2022/09/13 05:49:22;;;;;;;6.50;5.88;;;;;;;18.21;100.00;100914.97;5288503;28;20150;-68
2022/09/13 05:51:54;;;;;;;7.55;6.80;;;;;;;18.23;100.00;100909.50;5288141;28;20033;-69
2022/09/13 05:54:25;;;;;;;6.93;6.10;;;;;;;18.24;100.00;100903.19;5278676;28;20247;-69
2022/09/13 05:56:56;;;;;;;7.13;6.43;;;;;;;18.29;100.00;100905.28;5284997;28;20025;-69
2022/09/13 05:59:28;;;;;;;9.20;6.53;;;;;;;18.27;100.00;100912.63;5285309;28;20024;-69
2022/09/13 06:01:59;;;;;;;7.20;6.38;;;;;;;18.29;100.00;100907.94;5283404;28;20530;-69
2022/09/13 06:04:30;;;;;;;9.97;7.30;;;;;;;18.31;100.00;100911.25;5291655;28;20073;-69
2022/09/13 06:07:01;;;;;;;8.57;7.00;;;;;;;18.33;100.00;100904.75;5266137;28;20044;-69
2022/09/13 06:09:33;;;;;;;9.60;7.18;;;;;;;18.34;100.00;100909.06;5284123;28;20350;-69
2022/09/13 06:12:04;;;;;;;11.02;7.20;;;;;;;18.39;100.00;100900.56;5284473;28;20070;-69
2022/09/13 06:14:35;;;;;;;7.70;6.75;;;;;;;18.43;100.00;100904.50;5286593;28;20178;-69
2022/09/13 06:17:07;;;;;;;9.35;7.07;;;;;;;18.48;100.00;100910.09;5287032;28;20058;-69
2022/09/13 06:19:38;;;;;;;8.13;7.23;;;;;;;18.52;100.00;100911.38;5284611;28;20050;-69
2022/09/13 06:22:09;;;;;;;8.77;7.32;;;;;;;18.53;100.00;100899.78;5284958;28;20392;-68
2022/09/13 06:24:41;;;;;;;9.80;7.38;;;;;;;18.58;100.00;100905.34;5284416;28;20021;-69
2022/09/13 06:27:12;;;;;;;11.20;7.70;;;;;;;18.59;100.00;100900.88;5280982;28;20034;-69
2022/09/13 06:29:43;;;;;;;9.27;7.35;;;;;;;18.58;100.00;100894.75;5283504;28;20036;-69
2022/09/13 06:32:15;;;;;;;7.82;7.03;;;;;;;18.66;100.00;100897.31;5289471;28;20027;-69
2022/09/13 06:34:47;;;;;;;8.50;7.65;;;;;;;18.71;100.00;100899.44;5288310;28;20016;-69
2022/09/13 06:37:18;;;;;;;8.00;7.20;;;;;;;18.74;100.00;100900.91;5287289;28;20602;-69
2022/09/13 06:39:49;;;;;;;8.20;7.35;;;;;;;18.78;100.00;100894.22;5288135;28;20874;-69
2022/09/13 06:42:21;;;;;;;9.23;7.13;;;;;;;18.81;100.00;100893.88;5283192;28;20158;-69
2022/09/13 06:44:52;;;;;;;9.20;7.97;;;;;;;18.87;100.00;100893.16;5286845;28;20035;-69
2022/09/13 06:47:23;;;;;;;10.73;8.68;;;;;;;18.91;100.00;100899.75;5285249;28;20062;-69
2022/09/13 06:49:54;;;;;;;11.63;8.25;;;;;;;18.92;100.00;100901.38;5293853;28;20515;-69
2022/09/13 06:52:26;;;;;;;9.50;7.87;;;;;;;18.92;100.00;100896.91;5284671;28;20150;-68
2022/09/13 06:54:58;;;;;;;11.40;8.17;;;;;;;18.98;100.00;100905.97;5285778;28;20430;-69
2022/09/13 06:57:29;;;;;;;14.80;9.10;;;;;;;19.01;100.00;100913.53;5286909;28;20067;-69
2022/09/13 07:00:01;;;;;;;12.70;8.70;;;;;;;19.03;100.00;100908.88;5285425;28;20377;-69
2022/09/13 07:02:32;;;;;;;16.70;8.82;;;;;;;19.06;100.00;100897.91;5286781;28;20078;-68
2022/09/13 07:05:04;;;;;;;16.50;8.40;;;;;;;19.15;100.00;100906.59;5283566;28;20443;-69
2022/09/13 07:07:35;;;;;;;10.73;8.23;;;;;;;19.22;100.00;100901.38;5284874;28;20124;-69
2022/09/13 07:10:07;;;;;;;10.87;8.70;;;;;;;19.31;100.00;100908.22;5284862;28;20036;-69
2022/09/13 07:12:41;;;;;;;15.87;8.93;;;;;;;19.41;100.00;100903.44;5291680;28;20024;-69
2022/09/13 07:15:12;;;;;;;10.35;8.68;;;;;;;19.32;100.00;100901.88;5283078;28;20480;-69
2022/09/13 07:17:44;;;;;;;9.82;8.82;;;;;;;19.49;100.00;100903.31;5284328;28;20028;-69
2022/09/13 07:20:16;;;;;;;10.63;9.10;;;;;;;19.55;100.00;100899.94;5283775;28;20090;-69
2022/09/13 07:22:47;;;;;;;11.37;9.77;;;;;;;19.62;100.00;100905.31;5284894;28;20052;-69
2022/09/13 07:25:18;;;;;;;12.50;10.30;;;;;;;19.65;100.00;100908.44;5283259;28;20086;-69
2022/09/13 07:27:50;;;;;;;11.43;10.23;;;;;;;19.76;100.00;100912.44;5281407;28;20040;-69
2022/09/13 07:30:21;;;;;;;11.73;10.50;;;;;;;19.82;100.00;100913.53;5285206;28;20399;-69
2022/09/13 07:32:52;;;;;;;11.23;10.10;;;;;;;19.89;100.00;100920.56;5286096;28;20056;-68
2022/09/13 07:35:23;;;;;;;12.40;10.47;;;;;;;19.93;100.00;100919.16;5287959;28;20054;-69
2022/09/13 07:37:55;;;;;;;11.80;10.53;;;;;;;20.00;100.00;100915.72;5289394;28;20442;-69
2022/09/13 07:40:26;;;;;;;16.83;11.17;;;;;;;20.11;100.00;100924.03;5286040;28;20040;-69
2022/09/13 07:42:57;;;;;;;12.70;10.63;;;;;;;20.13;100.00;100923.84;5286798;28;20385;-70
2022/09/13 07:45:28;;;;;;;12.23;10.90;;;;;;;20.26;100.00;100929.28;5282564;28;20246;-69
2022/09/13 07:48:00;;;;;;;11.97;10.63;;;;;;;20.35;100.00;100927.31;5287388;28;20078;-69
2022/09/13 07:50:32;;;;;;;13.17;11.57;;;;;;;20.39;100.00;100933.91;5283340;28;20033;-69
2022/09/13 07:53:03;;;;;;;16.27;12.03;;;;;;;20.46;100.00;100926.81;5284669;28;20441;-69
2022/09/13 07:55:34;;;;;;;14.43;13.03;;;;;;;20.59;100.00;100929.56;5283051;28;20378;-70
2022/09/13 07:58:05;;;;;;;15.33;12.97;;;;;;;20.67;100.00;100925.94;5279509;28;20032;-70
2022/09/13 08:00:37;;;;;;;14.13;12.80;;;;;;;20.77;100.00;100930.94;5283807;28;20229;-70
2022/09/13 08:03:10;;;;;;;17.60;13.77;;;;;;;20.86;100.00;100940.41;5282552;28;20044;-70
2022/09/13 08:05:41;;;;;;;16.13;14.40;;;;;;;20.90;100.00;100931.00;5290109;28;20415;-70
2022/09/13 08:08:12;;;;;;;16.70;14.90;;;;;;;20.98;100.00;100935.34;5281606;28;20047;-70
2022/09/13 08:10:44;;;;;;;19.43;15.47;;;;;;;21.10;100.00;100941.75;5285172;28;20523;-71
2022/09/13 08:13:16;;;;;;;17.13;15.43;;;;;;;21.15;100.00;100931.38;5286264;28;20551;-71
2022/09/13 08:15:48;;;;;;;18.87;16.87;;;;;;;21.31;100.00;100935.53;5288021;28;20026;-72
2022/09/13 08:18:20;;;;;;;23.65;17.20;;;;;;;21.36;100.00;100935.78;5288486;28;20484;-71
2022/09/13 08:20:55;;;;;;;18.83;16.70;;;;;;;21.56;100.00;100933.22;5287576;28;20113;-71
2022/09/13 08:23:27;;;;;;;18.65;16.75;;;;;;;21.59;100.00;100936.28;5283036;28;20417;-70
2022/09/13 08:26:02;;;;;;;20.30;18.23;;;;;;;21.79;100.00;100935.53;5281056;28;20058;-70
2022/09/13 08:28:35;;;;;;;21.55;19.35;;;;;;;21.74;100.00;100938.78;5290135;28;20021;-69
2022/09/13 08:31:09;;;;;;;19.42;17.52;;;;;;;21.91;100.00;100939.25;5277751;28;20119;-69
2022/09/13 08:33:45;;;;;;;19.65;17.63;;;;;;;21.93;100.00;100950.50;5276083;28;20040;-69
2022/09/13 08:36:17;;;;;;;20.05;17.98;;;;;;;21.97;100.00;100954.44;5280117;28;20577;-70
2022/09/13 08:38:56;;;;;;;19.60;17.77;;;;;;;22.20;100.00;100945.25;5283695;28;20107;-69
2022/09/13 08:41:54;;;;;;;19.48;17.52;;;;;;;22.42;100.00;100953.88;5290789;28;20020;-69
2022/09/13 08:44:33;;;;;;;20.40;18.38;;;;;;;22.34;100.00;100954.91;5291390;28;20046;-69
2022/09/13 08:47:10;;;;;;;20.80;18.65;;;;;;;22.42;100.00;100960.03;5289935;28;20035;-69
2022/09/13 08:49:45;;;;;;;21.17;19.08;;;;;;;22.48;100.00;100953.88;5269427;28;20451;-69
2022/09/13 08:52:29;;;;;;;23.55;18.98;;;;;;;22.58;100.00;100954.31;5282846;28;20103;-69
2022/09/13 08:55:12;;;;;;;20.33;18.20;;;;;;;22.73;100.00;100954.09;5289079;28;20027;-70
2022/09/13 08:57:51;;;;;;;21.45;19.20;;;;;;;22.83;100.00;100948.31;5283472;28;20036;-70
2022/09/13 09:00:49;;;;;;;22.45;19.95;;;;;;;23.17;100.00;100949.06;5284298;28;20527;-70
2022/09/13 09:03:37;;;;;;;20.52;18.63;;;;;;;23.10;100.00;100943.75;5285987;28;20085;-69
2022/09/13 09:06:14;;;;;;;21.77;18.80;;;;;;;23.17;100.00;100936.53;5288594;28;20028;-70
2022/09/13 09:08:52;;;;;;;19.75;17.85;;;;;;;23.20;100.00;100941.47;5280810;28;20272;-69
2022/09/13 09:11:42;;;;;;;21.58;19.42;;;;;;;23.30;100.00;100936.50;5288042;28;20025;-70
2022/09/13 09:14:21;;;;;;;19.98;17.88;;;;;;;23.26;100.00;100929.94;5285010;28;20035;-70
2022/09/13 09:16:59;;;;;;;19.95;17.48;;;;;;;23.26;100.00;100924.59;5288337;28;20040;-70
2022/09/13 09:19:39;;;;;;;19.85;17.85;;;;;;;23.35;100.00;100909.13;5285503;28;20527;-69
2022/09/13 09:22:20;;;;;;;20.00;18.00;;;;;;;23.46;100.00;100932.53;5286794;28;20039;-70
2022/09/13 09:24:54;;;;;;;21.60;19.35;;;;;;;23.45;100.00;100930.88;5288355;28;20071;-69
2022/09/13 09:27:29;;;;;;;18.48;16.67;;;;;;;23.59;100.00;100922.78;5285976;28;20020;-69
2022/09/13 09:30:01;;;;;;;17.73;15.40;;;;;;;23.66;100.00;100927.09;5286717;28;20036;-70
2022/09/13 09:32:59;;;;;;;19.33;17.33;;;;;;;23.97;100.00;100920.91;5290144;28;20020;-69
2022/09/13 09:35:36;;;;;;;18.23;14.35;;;;;;;23.92;100.00;100930.66;5281266;28;20503;-69
2022/09/13 09:38:31;;;;;;;16.33;14.57;;;;;;;24.26;100.00;100927.50;5292143;28;20063;-70
2022/09/13 09:41:12;;;;;;;17.83;14.35;;;;;;;24.13;100.00;100929.44;5289232;28;20032;-69
2022/09/13 09:44:15;;;;;;;19.98;16.15;;;;;;;24.47;100.00;100937.06;5284464;28;20028;-69
2022/09/13 09:47:09;;;;;;;17.02;15.23;;;;;;;24.45;100.00;100930.28;5288337;28;20385;-70
2022/09/13 09:50:11;;;;;;;19.77;13.27;;;;;;;24.57;100.00;100922.34;5282540;28;20614;-70
2022/09/13 09:52:58;;;;;;;16.25;13.50;;;;;;;24.75;98.89;100923.19;5280925;28;20051;-70
2022/09/13 09:56:15;;;;;;;14.48;12.63;;;;;;;25.14;97.10;100925.66;5287845;28;20086;-70
2022/09/13 09:58:46;;;;;;;16.90;13.95;;;;;;;24.80;93.92;100927.03;5213563;28;20053;-70
2022/09/13 10:01:33;;;;;;;18.40;14.43;;;;;;;25.13;96.18;100930.22;5283651;28;20037;-70
2022/09/13 10:04:04;;;;;;;14.55;13.05;;;;;;;24.99;93.72;100934.06;5288706;28;20033;-70
2022/09/13 10:06:40;;;;;;;14.87;13.27;;;;;;;25.14;96.11;100931.84;5282497;28;20359;-70
2022/09/13 10:09:11;;;;;;;15.70;12.50;;;;;;;25.20;90.61;100924.78;5286387;28;20041;-69
2022/09/13 10:11:58;;;;;;;15.00;13.10;;;;;;;25.16;90.30;100926.28;5274872;28;20077;-70
2022/09/13 10:14:32;;;;;;;13.98;12.48;;;;;;;25.32;91.55;100914.13;5276990;28;20480;-70
2022/09/13 10:17:25;;;;;;;13.63;11.73;;;;;;;25.68;91.99;100918.56;5283443;28;20036;-70
2022/09/13 10:20:20;;;;;;;14.35;11.32;;;;;;;25.89;89.47;100915.41;5291213;28;20043;-70
2022/09/13 10:23:19;;;;;;;14.73;12.27;;;;;;;25.80;88.95;100924.00;5288616;28;20123;-69
2022/09/13 10:26:05;;;;;;;15.50;11.13;;;;;;;25.56;88.00;100918.53;5282680;28;20043;-70
2022/09/13 10:29:02;;;;;;;12.02;9.85;;;;;;;25.45;91.20;100920.09;5287743;28;20119;-70
2022/09/13 10:31:37;;;;;;;12.10;10.10;;;;;;;25.51;90.45;100922.94;5286011;28;20111;-70
2022/09/13 10:34:32;;;;;;;13.00;11.32;;;;;;;25.84;87.88;100923.34;5283225;28;20021;-69
2022/09/13 10:37:30;;;;;;;16.58;12.10;;;;;;;25.68;91.08;100922.09;5285694;28;20481;-70
2022/09/13 10:40:15;;;;;;;14.88;11.48;;;;;;;25.59;85.98;100918.06;5287909;28;20158;-70
2022/09/13 10:42:55;;;;;;;12.65;11.30;;;;;;;25.40;88.31;100925.34;5282789;28;20020;-70
2022/09/13 10:45:30;;;;;;;13.65;10.15;;;;;;;25.18;88.96;100908.09;5286595;28;20576;-70
2022/09/13 10:48:09;;;;;;;11.90;10.68;;;;;;;25.24;90.33;100920.59;5287986;28;20083;-70
2022/09/13 10:51:00;;;;;;;13.07;11.77;;;;;;;25.48;90.76;100922.34;5289384;28;20020;-69
2022/09/13 10:53:38;;;;;;;12.75;11.18;;;;;;;25.20;94.90;100922.09;5283600;28;20110;-70
2022/09/13 10:56:25;;;;;;;12.50;11.10;;;;;;;25.43;89.84;100922.22;5263398;28;20025;-70
2022/09/13 10:59:28;;;;;;;14.02;11.18;;;;;;;25.39;94.24;100904.94;5283085;28;20032;-70
2022/09/13 11:02:23;;;;;;;12.65;10.63;;;;;;;25.46;92.31;100903.00;5286150;28;20020;-70
2022/09/13 11:05:12;;;;;;;10.82;9.70;;;;;;;25.44;90.56;100907.75;5282410;28;20028;-70
2022/09/13 11:08:02;;;;;;;11.20;8.98;;;;;;;25.40;92.36;100895.03;5285455;28;20036;-70
2022/09/13 11:10:37;;;;;;;11.10;8.90;;;;;;;25.40;90.16;100893.16;5284744;28;20035;-70
2022/09/13 11:13:29;;;;;;;10.68;9.05;;;;;;;25.74;90.74;100890.81;5283722;28;20064;-70
2022/09/13 11:16:24;;;;;;;12.02;9.90;;;;;;;25.87;88.84;100890.63;5281418;28;20046;-70
2022/09/13 11:18:58;;;;;;;10.77;9.50;;;;;;;25.76;87.62;100883.38;5287587;28;20024;-70
2022/09/13 11:21:30;;;;;;;12.93;9.40;;;;;;;25.82;83.16;100887.03;5285002;28;20060;-69
2022/09/13 11:24:27;;;;;;;8.90;8.00;;;;;;;26.36;85.72;100880.53;5270433;28;20060;-70
2022/09/13 11:27:08;;;;;;;9.88;7.45;;;;;;;26.22;86.48;100881.03;5285339;28;20066;-70
2022/09/13 11:29:55;;;;;;;10.38;8.13;;;;;;;26.35;83.59;100872.72;5282160;28;20032;-70
2022/09/13 11:33:10;;;;;;;9.20;7.38;;;;;;;26.75;80.45;100877.41;5280047;28;20107;-70
2022/09/13 11:35:52;;;;;;;9.48;7.47;;;;;;;26.70;81.09;100880.78;5288304;28;20713;-70
2022/09/13 11:38:33;;;;;;;9.30;7.50;;;;;;;26.84;80.51;100876.78;5283625;28;20043;-70
2022/09/13 11:41:40;;;;;;;12.68;7.20;;;;;;;27.08;78.59;100876.72;5288827;28;20024;-71
2022/09/13 11:44:30;;;;;;;12.15;7.65;;;;;;;26.85;77.72;100867.66;5283922;28;20025;-71
2022/09/13 11:47:20;;;;;;;11.82;8.40;;;;;;;27.32;72.42;100878.31;5287007;28;20027;-71
2022/09/13 11:50:20;;;;;;;7.68;6.88;;;;;;;27.22;72.20;100885.38;5278558;28;20392;-71
2022/09/13 11:52:59;;;;;;;7.70;6.20;;;;;;;27.20;73.52;100880.25;5288018;28;20067;-71
2022/09/13 11:55:39;;;;;;;8.80;6.53;;;;;;;27.53;75.17;100874.09;5280239;28;20051;-70
2022/09/13 11:58:36;;;;;;;9.40;7.30;;;;;;;27.06;75.68;100884.22;5287766;28;21152;-71
2022/09/13 12:01:11;;;;;;;8.05;6.68;;;;;;;26.74;77.88;100873.88;5262379;28;20106;-71
2022/09/13 12:04:00;;;;;;;9.35;5.88;;;;;;;26.97;78.01;100880.25;5285399;28;20085;-71
2022/09/13 12:06:37;;;;;;;7.88;5.25;;;;;;;27.05;75.15;100872.66;5287281;28;20480;-71
2022/09/13 12:09:22;;;;;;;7.05;4.53;;;;;;;26.90;75.84;100878.53;5285956;28;20024;-71